Aviation Digital Data Service (ADDS)

Output produced by TAFs form (0214 UTC 02 August 2015)
found at http://www.aviationweather.gov/adds/tafs/
 
KMRB 012334Z 0200/0224 30006KT P6SM FEW070 
     FM021500 23004KT P6SM FEW060